Time;durP1;ratioP1;P1;durP2;ratioP2;P2;SDS_P1;SDS_P2;PMS_P1;PMS_P2;Temp;Humidity;BMP_temperature;BMP_pressure;BME280_temperature;BME280_humidity;BME280_pressure;Samples;Min_cycle;Max_cycle;Signal;HPM_P1;HPM_P2
2022/05/12 00:01:58;;;;;;;1.33;1.03;;;17.80;57.50;;;;;;5060156;28;21199;-63
2022/05/12 00:04:30;;;;;;;1.23;1.03;;;17.80;57.10;;;;;;5060275;28;20465;-63
2022/05/12 00:07:03;;;;;;;1.67;1.17;;;17.70;56.70;;;;;;5056581;28;20801;-63
2022/05/12 00:09:35;;;;;;;2.30;0.77;;;17.70;56.90;;;;;;5059665;28;20442;-64
2022/05/12 00:12:06;;;;;;;2.10;1.00;;;17.80;56.60;;;;;;5065290;28;20434;-64
2022/05/12 00:14:37;;;;;;;0.87;0.80;;;17.80;56.50;;;;;;5063724;28;20434;-64
2022/05/12 00:17:08;;;;;;;2.67;0.90;;;17.70;56.70;;;;;;5063853;28;20438;-63
2022/05/12 00:19:39;;;;;;;1.57;1.30;;;17.70;57.90;;;;;;5064920;28;20452;-63
2022/05/12 00:22:12;;;;;;;1.37;0.97;;;17.70;58.60;;;;;;5062339;28;20460;-63
2022/05/12 00:24:42;;;;;;;1.50;1.00;;;17.60;58.80;;;;;;5059198;28;20456;-63
2022/05/12 00:27:13;;;;;;;1.43;1.00;;;17.60;58.50;;;;;;5062335;28;20449;-63
2022/05/12 00:29:45;;;;;;;1.43;1.00;;;17.80;57.40;;;;;;5065049;28;20452;-63
2022/05/12 00:32:16;;;;;;;1.20;1.10;;;17.60;57.90;;;;;;5058219;28;20456;-64
2022/05/12 00:34:47;;;;;;;0.90;0.90;;;17.60;58.20;;;;;;5063423;28;20474;-64
2022/05/12 00:37:19;;;;;;;1.00;0.90;;;17.60;57.20;;;;;;5071331;28;20456;-64
2022/05/12 00:39:50;;;;;;;1.43;1.07;;;17.50;57.80;;;;;;5064334;28;20483;-63
2022/05/12 00:42:21;;;;;;;1.47;1.37;;;17.40;58.90;;;;;;5066803;28;20543;-63
2022/05/12 00:44:53;;;;;;;1.80;1.30;;;17.40;59.70;;;;;;5064767;28;20517;-65
2022/05/12 00:47:24;;;;;;;1.10;1.10;;;17.40;58.70;;;;;;5065333;28;20470;-64
2022/05/12 00:49:56;;;;;;;1.60;1.10;;;17.50;57.50;;;;;;5065005;28;20478;-65
2022/05/12 00:52:30;;;;;;;2.33;1.10;;;17.60;58.00;;;;;;5059900;28;20463;-65
2022/05/12 00:55:06;;;;;;;1.27;1.17;;;17.70;58.20;;;;;;5065461;28;20475;-67
2022/05/12 00:57:40;;;;;;;4.33;1.30;;;17.70;58.10;;;;;;5065087;28;20533;-66
2022/05/12 01:00:14;;;;;;;1.27;1.13;;;17.50;58.60;;;;;;5065282;28;21181;-66
2022/05/12 01:02:48;;;;;;;1.60;1.37;;;17.40;59.00;;;;;;5064593;28;20508;-67
2022/05/12 01:05:19;;;;;;;4.37;1.50;;;17.20;59.50;;;;;;5065065;28;20482;-67
2022/05/12 01:07:55;;;;;;;3.10;1.50;;;17.20;59.70;;;;;;5065221;28;20444;-67
2022/05/12 01:10:27;;;;;;;1.00;1.00;;;17.00;58.00;;;;;;5063406;28;20464;-65
2022/05/12 01:12:58;;;;;;;2.20;1.10;;;17.00;58.80;;;;;;5064021;28;20438;-67
2022/05/12 01:15:29;;;;;;;0.93;0.93;;;16.90;58.60;;;;;;5065198;28;20573;-67
2022/05/12 01:18:05;;;;;;;0.90;0.87;;;16.70;59.80;;;;;;5064806;28;20559;-67
2022/05/12 01:20:36;;;;;;;3.60;1.33;;;16.70;60.20;;;;;;5065667;28;20506;-66
2022/05/12 01:23:22;;;;;;;1.63;1.00;;;16.70;60.80;;;;;;5066795;28;20475;-67
2022/05/12 01:25:56;;;;;;;1.47;1.10;;;16.60;62.30;;;;;;5064666;28;20520;-64
2022/05/12 01:28:27;;;;;;;0.87;0.87;;;16.60;61.60;;;;;;5064270;28;20547;-65
2022/05/12 01:30:59;;;;;;;1.63;0.93;;;16.60;61.80;;;;;;5064654;28;20486;-65
2022/05/12 01:33:30;;;;;;;1.50;1.20;;;16.40;60.20;;;;;;5063687;28;20796;-64
2022/05/12 01:36:01;;;;;;;1.07;0.80;;;16.40;62.30;;;;;;5062663;28;20531;-64
2022/05/12 01:38:34;;;;;;;3.87;1.30;;;16.30;61.30;;;;;;5061709;28;20443;-65
2022/05/12 01:41:05;;;;;;;0.93;0.80;;;16.30;61.50;;;;;;5054898;28;20636;-65
2022/05/12 01:43:36;;;;;;;3.23;1.30;;;16.30;60.30;;;;;;5064778;28;20465;-63
2022/05/12 01:46:07;;;;;;;1.13;1.00;;;16.00;61.60;;;;;;5067168;28;20483;-65
2022/05/12 01:48:38;;;;;;;1.00;0.83;;;15.90;63.20;;;;;;5054635;28;20508;-65
2022/05/12 01:51:09;;;;;;;2.40;1.00;;;15.70;64.30;;;;;;5062836;28;20495;-65
2022/05/12 01:53:42;;;;;;;2.70;1.27;;;15.70;63.40;;;;;;5055306;28;20491;-65
2022/05/12 01:56:13;;;;;;;2.00;1.07;;;15.70;64.20;;;;;;5063824;28;20613;-65
2022/05/12 01:58:44;;;;;;;2.27;1.30;;;15.60;63.10;;;;;;5066287;28;20448;-66
2022/05/12 02:01:15;;;;;;;1.77;0.90;;;15.60;61.80;;;;;;5064059;28;20489;-65
2022/05/12 02:03:46;;;;;;;2.23;1.30;;;15.60;61.50;;;;;;5065602;28;20472;-65
2022/05/12 02:06:19;;;;;;;1.00;0.83;;;15.50;62.90;;;;;;5067243;28;20513;-65
2022/05/12 02:08:52;;;;;;;1.60;1.10;;;15.50;62.80;;;;;;5062420;28;20633;-64
2022/05/12 02:11:24;;;;;;;0.87;0.83;;;15.50;62.80;;;;;;5064952;28;20555;-64
2022/05/12 02:13:56;;;;;;;0.73;0.73;;;15.40;63.60;;;;;;5066213;28;20554;-64
2022/05/12 02:16:27;;;;;;;2.40;1.17;;;15.30;62.80;;;;;;5066395;28;20483;-62
2022/05/12 02:18:57;;;;;;;3.47;1.20;;;15.20;64.20;;;;;;5063646;28;20518;-62
2022/05/12 02:21:28;;;;;;;1.00;1.00;;;15.00;65.10;;;;;;5064979;28;20492;-63
2022/05/12 02:24:01;;;;;;;2.10;1.03;;;15.00;64.20;;;;;;5064351;28;22453;-63
2022/05/12 02:26:32;;;;;;;1.13;1.00;;;14.90;66.30;;;;;;5069000;28;20467;-63
2022/05/12 02:29:03;;;;;;;2.30;0.90;;;14.90;66.80;;;;;;5064404;28;20437;-63
2022/05/12 02:31:34;;;;;;;1.77;1.17;;;14.70;67.10;;;;;;5077261;28;20437;-63
2022/05/12 02:34:05;;;;;;;1.07;0.97;;;14.60;67.00;;;;;;5064131;28;20872;-63
2022/05/12 02:36:36;;;;;;;3.23;1.20;;;14.60;66.40;;;;;;5065611;28;20460;-63
2022/05/12 02:39:08;;;;;;;0.87;0.80;;;14.50;66.80;;;;;;5064444;28;20485;-64
2022/05/12 02:41:39;;;;;;;1.07;0.97;;;14.40;64.20;;;;;;5063740;28;20499;-64
2022/05/12 02:44:10;;;;;;;1.30;1.00;;;14.20;64.10;;;;;;5063245;28;20456;-64
2022/05/12 02:46:41;;;;;;;1.57;1.10;;;14.10;64.40;;;;;;5063698;28;20559;-64
2022/05/12 02:49:12;;;;;;;1.70;0.90;;;14.00;64.00;;;;;;5064554;28;20490;-64
2022/05/12 02:51:44;;;;;;;1.10;0.70;;;14.10;64.80;;;;;;5062582;28;20456;-64
2022/05/12 02:54:16;;;;;;;1.40;1.20;;;14.00;65.30;;;;;;5055519;28;20472;-64
2022/05/12 02:56:47;;;;;;;1.00;0.83;;;13.90;65.40;;;;;;5057032;28;20855;-64
2022/05/12 02:59:19;;;;;;;1.10;0.90;;;13.90;68.30;;;;;;5063707;28;20440;-64
2022/05/12 03:01:50;;;;;;;1.23;1.00;;;13.90;65.00;;;;;;5062430;28;20496;-64
2022/05/12 03:04:21;;;;;;;2.77;0.70;;;13.90;63.70;;;;;;5061859;28;20456;-64
2022/05/12 03:06:52;;;;;;;0.93;0.93;;;13.80;64.90;;;;;;5062053;28;20798;-64
2022/05/12 03:09:25;;;;;;;1.93;1.00;;;13.80;66.50;;;;;;5060233;28;20475;-64
2022/05/12 03:11:56;;;;;;;1.47;1.00;;;13.70;64.90;;;;;;5061657;28;20915;-63
2022/05/12 03:14:27;;;;;;;1.13;0.87;;;13.60;66.10;;;;;;5064138;28;20467;-64
2022/05/12 03:16:58;;;;;;;1.23;0.80;;;13.50;66.30;;;;;;5062697;28;20563;-64
2022/05/12 03:19:29;;;;;;;1.03;0.70;;;13.40;68.30;;;;;;5067642;28;20526;-64
2022/05/12 03:22:00;;;;;;;2.07;0.90;;;13.40;68.90;;;;;;5063684;28;20601;-64
2022/05/12 03:24:34;;;;;;;1.13;1.03;;;13.30;70.10;;;;;;5058824;28;20825;-64
2022/05/12 03:27:06;;;;;;;1.63;1.30;;;13.30;72.20;;;;;;5059952;28;20451;-64
2022/05/12 03:29:38;;;;;;;1.37;0.93;;;13.20;72.10;;;;;;5061585;28;20453;-64
2022/05/12 03:32:12;;;;;;;1.70;0.80;;;13.20;73.80;;;;;;5056846;28;20449;-64
2022/05/12 03:34:46;;;;;;;1.53;0.80;;;13.00;73.30;;;;;;5057784;28;20947;-64
2022/05/12 03:37:17;;;;;;;0.93;0.77;;;12.90;74.60;;;;;;5058874;28;20471;-63
2022/05/12 03:39:50;;;;;;;1.03;0.90;;;12.90;75.90;;;;;;5057172;28;20543;-63
2022/05/12 03:42:22;;;;;;;1.00;1.00;;;12.80;77.10;;;;;;5055135;28;20500;-64
2022/05/12 03:44:54;;;;;;;1.33;1.23;;;12.80;78.20;;;;;;5055339;28;20971;-63
2022/05/12 03:47:26;;;;;;;2.30;1.20;;;12.80;77.30;;;;;;5057706;28;20453;-63
2022/05/12 03:50:00;;;;;;;2.83;1.20;;;12.80;77.30;;;;;;5054663;28;20487;-63
2022/05/12 03:52:31;;;;;;;1.93;1.20;;;12.70;77.40;;;;;;5054381;28;20514;-63
2022/05/12 03:55:04;;;;;;;2.30;0.90;;;12.70;79.80;;;;;;5055411;28;20463;-63
2022/05/12 03:57:35;;;;;;;1.20;1.10;;;12.70;80.00;;;;;;5057371;28;20541;-63
2022/05/12 04:00:09;;;;;;;1.37;1.03;;;12.70;80.20;;;;;;5055226;28;20544;-63
2022/05/12 04:02:39;;;;;;;1.10;1.00;;;12.60;81.50;;;;;;5061405;28;20488;-63
2022/05/12 04:05:11;;;;;;;1.17;1.07;;;12.50;81.20;;;;;;5060715;28;21891;-63
2022/05/12 04:07:49;;;;;;;1.13;1.03;;;12.50;82.80;;;;;;5063238;28;20947;-63
2022/05/12 04:10:23;;;;;;;2.10;1.10;;;12.40;85.20;;;;;;5063649;28;20475;-63
2022/05/12 04:12:55;;;;;;;0.87;0.87;;;12.40;84.30;;;;;;5062203;28;20471;-63
2022/05/12 04:15:25;;;;;;;1.50;1.20;;;12.50;85.80;;;;;;5061723;28;20448;-62
2022/05/12 04:18:01;;;;;;;1.57;1.03;;;12.50;85.70;;;;;;5055746;28;20843;-63
2022/05/12 04:20:33;;;;;;;1.07;0.60;;;12.40;86.60;;;;;;5060274;28;20491;-63
2022/05/12 04:23:04;;;;;;;1.33;1.00;;;12.30;87.10;;;;;;5061473;28;20605;-62
2022/05/12 04:25:38;;;;;;;1.50;0.70;;;12.20;87.70;;;;;;5060397;28;20464;-62
2022/05/12 04:28:09;;;;;;;1.80;1.10;;;12.10;89.70;;;;;;5060877;28;20498;-63
2022/05/12 04:30:40;;;;;;;0.90;0.90;;;12.10;90.50;;;;;;5060715;28;20456;-63
2022/05/12 04:35:58;;;;;;;1.90;0.77;;;11.90;91.10;;;;;;5054588;28;20477;-64
2022/05/12 04:38:29;;;;;;;1.07;0.80;;;11.80;91.90;;;;;;5063663;28;20560;-63
2022/05/12 04:41:02;;;;;;;0.90;0.90;;;11.90;91.50;;;;;;5060250;28;20495;-64
2022/05/12 04:43:32;;;;;;;2.17;1.30;;;11.90;92.50;;;;;;5058089;28;20613;-63
2022/05/12 04:46:03;;;;;;;1.03;0.93;;;11.80;91.80;;;;;;5061627;28;20459;-63
2022/05/12 04:48:34;;;;;;;1.73;1.00;;;11.90;92.50;;;;;;5060185;28;20468;-63
2022/05/12 04:51:05;;;;;;;1.33;0.80;;;11.80;92.00;;;;;;5061317;28;20460;-63
2022/05/12 04:53:36;;;;;;;2.70;0.97;;;11.90;92.30;;;;;;5061819;28;20480;-63
2022/05/12 04:56:09;;;;;;;1.73;0.90;;;11.80;92.80;;;;;;5059222;28;20452;-63
2022/05/12 04:58:40;;;;;;;1.03;0.87;;;11.70;92.90;;;;;;5051969;28;20478;-63
2022/05/12 05:01:10;;;;;;;2.30;1.30;;;11.70;93.60;;;;;;5063277;28;20460;-62
2022/05/12 05:03:42;;;;;;;1.40;1.10;;;11.70;93.90;;;;;;5056540;28;20506;-63
2022/05/12 05:06:13;;;;;;;1.90;0.93;;;11.70;94.30;;;;;;5059127;28;20582;-63
2022/05/12 05:08:44;;;;;;;1.50;1.07;;;11.80;94.60;;;;;;5060259;28;20448;-63
2022/05/12 05:11:16;;;;;;;1.23;0.87;;;11.80;94.80;;;;;;5065179;28;20474;-63
2022/05/12 05:13:47;;;;;;;1.13;0.90;;;11.70;94.90;;;;;;5058893;28;20467;-63
2022/05/12 05:16:18;;;;;;;1.00;1.00;;;11.70;95.40;;;;;;5066572;28;20495;-63
2022/05/12 05:18:49;;;;;;;0.73;0.73;;;11.80;95.50;;;;;;5061500;28;20496;-62
2022/05/12 05:21:20;;;;;;;3.03;1.00;;;11.80;94.90;;;;;;5064871;28;20464;-63
2022/05/12 05:23:51;;;;;;;1.63;1.20;;;11.80;95.90;;;;;;5048093;28;21013;-63
2022/05/12 05:26:23;;;;;;;1.60;0.90;;;11.70;95.60;;;;;;5063081;28;20475;-63
2022/05/12 05:28:54;;;;;;;0.93;0.90;;;11.80;95.60;;;;;;5064416;28;20437;-63
2022/05/12 05:31:24;;;;;;;2.60;1.10;;;11.70;96.20;;;;;;5065655;28;20456;-63
2022/05/12 05:33:55;;;;;;;1.13;1.03;;;11.60;97.80;;;;;;5058986;28;20567;-63
2022/05/12 05:36:27;;;;;;;1.50;1.10;;;11.60;98.00;;;;;;5063791;28;20456;-63
2022/05/12 05:38:58;;;;;;;1.23;1.13;;;11.70;96.90;;;;;;5062377;28;20463;-63
2022/05/12 05:41:31;;;;;;;0.90;0.90;;;11.70;97.40;;;;;;5059376;28;20958;-63
2022/05/12 05:44:01;;;;;;;2.30;1.50;;;11.60;97.80;;;;;;5063979;28;20512;-62
2022/05/12 05:46:32;;;;;;;2.60;0.97;;;11.60;97.10;;;;;;5064839;28;20531;-63
2022/05/12 05:49:06;;;;;;;2.00;1.00;;;11.70;97.30;;;;;;5069386;28;20525;-63
2022/05/12 05:54:35;;;;;;;0.90;0.90;;;11.70;97.40;;;;;;4998347;28;20459;-63
2022/05/12 05:57:08;;;;;;;1.93;1.10;;;11.60;97.60;;;;;;5001985;28;20518;-62
2022/05/12 05:59:39;;;;;;;1.67;1.43;;;11.50;98.00;;;;;;5002468;28;20459;-63
2022/05/12 06:02:10;;;;;;;3.10;1.13;;;11.50;98.20;;;;;;5002423;28;20560;-63
2022/05/12 06:04:40;;;;;;;1.00;0.90;;;11.50;99.00;;;;;;5002535;28;20483;-62
2022/05/12 06:07:11;;;;;;;1.40;0.97;;;11.50;99.00;;;;;;5001409;28;20459;-62
2022/05/12 06:09:42;;;;;;;2.30;1.10;;;11.30;99.40;;;;;;5001211;28;20546;-63
2022/05/12 06:12:15;;;;;;;1.03;0.80;;;11.30;99.30;;;;;;5002238;28;20475;-62
2022/05/12 06:14:46;;;;;;;0.87;0.80;;;11.30;99.20;;;;;;5001714;28;20459;-63
2022/05/12 06:17:17;;;;;;;0.90;0.90;;;11.30;99.00;;;;;;5001710;28;21401;-63
2022/05/12 06:19:50;;;;;;;1.23;1.13;;;11.30;99.40;;;;;;5010685;28;20483;-63
2022/05/12 06:22:22;;;;;;;2.00;1.07;;;11.30;99.50;;;;;;5011182;28;20474;-62
2022/05/12 06:24:53;;;;;;;0.80;0.80;;;11.40;99.90;;;;;;5012750;28;20490;-63
2022/05/12 06:27:26;;;;;;;1.60;1.30;;;11.30;99.60;;;;;;5008827;28;20462;-63
2022/05/12 06:29:57;;;;;;;0.90;0.90;;;11.30;99.70;;;;;;5061818;28;20464;-63
2022/05/12 06:32:28;;;;;;;1.30;1.10;;;11.30;99.90;;;;;;5062916;28;20456;-63
2022/05/12 06:34:58;;;;;;;0.90;0.90;;;11.30;99.90;;;;;;5063214;28;20460;-63
2022/05/12 06:37:29;;;;;;;1.23;1.13;;;11.30;99.90;;;;;;5061762;28;20491;-63
2022/05/12 06:40:00;;;;;;;2.10;1.20;;;11.30;99.90;;;;;;5048708;28;20455;-63
2022/05/12 06:42:35;;;;;;;1.73;1.20;;;11.30;99.90;;;;;;5063624;28;20468;-63
2022/05/12 06:45:07;;;;;;;2.23;1.23;;;11.30;99.90;;;;;;5062542;28;20495;-63
2022/05/12 06:47:38;;;;;;;1.00;1.00;;;11.30;99.90;;;;;;5061963;28;20470;-63
2022/05/12 06:50:09;;;;;;;1.47;1.23;;;11.30;99.90;;;;;;5061561;28;20464;-62
2022/05/12 06:52:41;;;;;;;0.80;0.80;;;11.30;99.90;;;;;;5059602;28;20571;-63
2022/05/12 06:55:12;;;;;;;1.43;1.07;;;11.40;99.90;;;;;;5060511;28;20464;-63
2022/05/12 06:57:44;;;;;;;3.43;1.43;;;11.20;99.90;;;;;;5065406;28;20819;-62
2022/05/12 07:00:18;;;;;;;1.90;1.40;;;11.20;99.90;;;;;;5063584;28;20448;-63
2022/05/12 07:02:49;;;;;;;1.53;1.40;;;11.30;99.90;;;;;;5061699;28;20952;-62
2022/05/12 07:05:24;;;;;;;1.00;0.90;;;11.10;99.90;;;;;;5061214;28;21486;-63
2022/05/12 07:07:56;;;;;;;2.27;1.23;;;11.10;99.90;;;;;;5061137;28;20486;-63
2022/05/12 07:10:29;;;;;;;2.40;1.27;;;11.10;99.90;;;;;;5055468;28;20464;-63
2022/05/12 07:13:01;;;;;;;2.10;1.53;;;11.10;99.90;;;;;;5061983;28;20464;-63
2022/05/12 07:15:32;;;;;;;1.13;1.03;;;10.90;99.90;;;;;;5061599;28;20540;-63
2022/05/12 07:18:03;;;;;;;3.60;1.40;;;10.90;99.90;;;;;;5059203;28;20484;-63
2022/05/12 07:28:58;;;;;;;1.40;1.30;;;11.00;99.90;;;;;;5060637;28;20464;-63
2022/05/12 07:31:29;;;;;;;2.73;1.60;;;11.00;99.90;;;;;;5061610;28;20476;-63
2022/05/12 07:34:00;;;;;;;1.43;1.30;;;11.00;99.90;;;;;;5060809;28;20472;-63
2022/05/12 07:36:33;;;;;;;1.23;1.10;;;11.00;99.90;;;;;;5060346;28;20452;-63
2022/05/12 07:39:05;;;;;;;1.60;1.27;;;11.00;99.90;;;;;;5060730;28;20557;-63
2022/05/12 07:41:38;;;;;;;1.50;1.40;;;11.10;99.90;;;;;;5064754;28;20770;-63
2022/05/12 07:44:13;;;;;;;3.03;1.17;;;11.00;99.90;;;;;;5064261;28;20492;-63
2022/05/12 07:46:45;;;;;;;1.50;1.40;;;11.00;99.90;;;;;;5061325;28;20474;-63
2022/05/12 07:49:17;;;;;;;1.47;1.37;;;10.90;99.90;;;;;;5060951;28;20472;-63
2022/05/12 07:51:51;;;;;;;2.40;2.00;;;11.00;99.90;;;;;;5058386;28;20467;-63
2022/05/12 07:54:21;;;;;;;5.10;1.53;;;11.00;99.90;;;;;;5059935;28;20456;-63
2022/05/12 07:56:52;;;;;;;1.57;1.47;;;11.00;99.90;;;;;;5060620;28;20484;-63
2022/05/12 07:59:27;;;;;;;1.20;1.20;;;11.10;99.90;;;;;;5068229;28;20456;-63
2022/05/12 08:01:59;;;;;;;1.30;1.20;;;11.00;99.90;;;;;;5060581;28;20475;-63
2022/05/12 08:04:32;;;;;;;4.37;1.50;;;11.00;99.90;;;;;;5058271;28;20523;-63
2022/05/12 08:07:03;;;;;;;5.00;1.40;;;10.90;99.90;;;;;;5056242;28;20452;-63
2022/05/12 08:09:34;;;;;;;1.40;1.30;;;11.00;99.90;;;;;;5050176;28;20452;-63
2022/05/12 08:12:05;;;;;;;3.13;1.37;;;10.90;99.90;;;;;;5061659;28;20471;-63
2022/05/12 08:14:38;;;;;;;3.40;1.70;;;10.90;99.90;;;;;;5059311;28;20869;-63
2022/05/12 08:17:09;;;;;;;2.17;1.30;;;10.90;99.90;;;;;;5060573;28;20801;-63
2022/05/12 08:19:40;;;;;;;1.50;1.30;;;10.90;99.90;;;;;;5060576;28;20464;-62
2022/05/12 08:22:11;;;;;;;1.47;1.37;;;10.90;99.90;;;;;;5061665;28;20499;-63
2022/05/12 08:24:42;;;;;;;2.27;1.27;;;10.90;99.90;;;;;;5059586;28;20484;-63
2022/05/12 08:27:13;;;;;;;1.43;1.30;;;10.90;99.90;;;;;;5060552;28;20775;-63
2022/05/12 08:29:45;;;;;;;2.60;1.37;;;10.80;99.90;;;;;;5060480;28;20763;-63
2022/05/12 08:32:16;;;;;;;1.43;1.17;;;10.80;99.90;;;;;;5060456;28;20471;-63
2022/05/12 08:34:47;;;;;;;1.30;1.20;;;10.80;99.90;;;;;;5060078;28;20780;-63
2022/05/12 08:37:18;;;;;;;1.67;1.57;;;10.80;99.90;;;;;;5060593;28;20540;-62
2022/05/12 08:39:49;;;;;;;3.20;1.40;;;10.80;99.90;;;;;;5060175;28;20490;-62
2022/05/12 08:42:28;;;;;;;1.50;1.30;;;10.80;99.90;;;;;;5061286;28;20551;-62
2022/05/12 08:45:01;;;;;;;1.93;1.17;;;10.80;99.90;;;;;;5062981;28;20494;-62
2022/05/12 08:47:35;;;;;;;2.93;1.50;;;10.70;99.90;;;;;;5059938;28;20460;-63
2022/05/12 08:50:09;;;;;;;2.13;1.40;;;10.70;99.90;;;;;;5061323;28;20547;-62
2022/05/12 08:52:49;;;;;;;1.57;1.40;;;10.80;99.90;;;;;;5065615;28;20467;-63
2022/05/12 08:55:24;;;;;;;2.50;1.37;;;10.70;99.90;;;;;;5062386;28;20471;-62
2022/05/12 08:57:59;;;;;;;2.87;1.27;;;10.70;99.90;;;;;;5068696;28;20458;-62
2022/05/12 09:00:37;;;;;;;2.60;1.60;;;10.60;99.90;;;;;;5064703;28;20456;-62
2022/05/12 09:03:17;;;;;;;2.07;1.30;;;10.70;99.90;;;;;;5063926;28;20464;-62
2022/05/12 09:06:02;;;;;;;1.30;1.03;;;10.70;99.90;;;;;;5063193;28;20910;-62
2022/05/12 09:08:39;;;;;;;1.40;1.30;;;10.60;99.90;;;;;;5063561;28;20476;-62
2022/05/12 09:11:20;;;;;;;3.40;1.40;;;10.60;99.90;;;;;;5064147;28;20467;-62
2022/05/12 09:13:53;;;;;;;1.30;1.20;;;10.60;99.90;;;;;;5062552;28;20583;-62
2022/05/12 09:16:30;;;;;;;3.60;1.63;;;10.70;99.90;;;;;;5064102;28;20480;-62
2022/05/12 09:19:01;;;;;;;3.93;1.60;;;10.60;99.90;;;;;;5064446;28;20471;-62
2022/05/12 09:21:35;;;;;;;4.13;2.10;;;10.60;99.90;;;;;;5062751;28;20463;-62
2022/05/12 09:24:07;;;;;;;2.27;1.37;;;10.70;99.90;;;;;;5063550;28;20482;-62
2022/05/12 09:26:41;;;;;;;1.60;1.50;;;10.70;99.90;;;;;;5064096;28;20491;-63
2022/05/12 09:29:19;;;;;;;5.03;1.67;;;10.70;99.90;;;;;;5060824;28;20490;-63
2022/05/12 09:31:53;;;;;;;1.37;1.20;;;10.70;99.90;;;;;;5055031;28;20461;-62
2022/05/12 09:34:32;;;;;;;3.67;1.40;;;10.70;99.90;;;;;;5063678;28;20474;-63
2022/05/12 09:37:20;;;;;;;2.27;1.30;;;10.70;99.90;;;;;;5064599;28;20464;-62
2022/05/12 09:39:53;;;;;;;1.50;1.40;;;10.70;99.90;;;;;;5061133;28;20468;-63
2022/05/12 09:42:42;;;;;;;3.23;1.40;;;10.70;99.90;;;;;;5064438;28;20464;-62
2022/05/12 09:45:24;;;;;;;2.80;1.77;;;10.70;99.90;;;;;;5059470;28;20821;-62
2022/05/12 09:50:53;;;;;;;1.40;1.30;;;10.70;99.90;;;;;;5151941;27;20612;-63
2022/05/12 09:53:31;;;;;;;3.30;1.20;;;10.70;99.90;;;;;;5137995;27;20919;-63
2022/05/12 09:56:06;;;;;;;2.90;1.30;;;10.60;99.90;;;;;;5150951;27;20456;-63
2022/05/12 09:58:39;;;;;;;3.03;1.40;;;10.60;99.90;;;;;;5141410;27;20472;-63
2022/05/12 10:01:23;;;;;;;3.37;1.43;;;10.70;99.90;;;;;;5137170;27;20469;-63
2022/05/12 10:09:53;;;;;;;4.33;1.60;;;10.80;99.90;;;;;;5137738;27;20495;-63
2022/05/12 10:12:26;;;;;;;3.17;1.50;;;10.80;99.90;;;;;;5139786;27;20509;-63
2022/05/12 10:15:01;;;;;;;2.33;1.23;;;10.80;99.90;;;;;;5145232;27;20467;-64
2022/05/12 10:17:36;;;;;;;2.50;1.77;;;10.70;99.90;;;;;;5139845;27;20531;-63
2022/05/12 10:20:10;;;;;;;1.93;1.53;;;10.70;99.90;;;;;;5140249;27;20806;-63
2022/05/12 10:22:47;;;;;;;2.53;1.63;;;10.60;99.90;;;;;;5142343;27;20464;-63
2022/05/12 10:25:24;;;;;;;1.77;1.30;;;10.60;99.90;;;;;;5130612;27;20454;-63
2022/05/12 10:28:00;;;;;;;1.50;1.40;;;10.60;99.90;;;;;;5135359;27;20857;-63
2022/05/12 10:30:45;;;;;;;3.53;1.63;;;10.50;99.90;;;;;;5136267;27;20889;-63
2022/05/12 10:33:26;;;;;;;2.10;1.60;;;10.50;99.90;;;;;;5149049;27;20466;-64
2022/05/12 10:36:09;;;;;;;1.60;1.27;;;10.50;99.90;;;;;;5143220;27;20445;-63
2022/05/12 10:38:50;;;;;;;2.47;1.13;;;10.50;99.90;;;;;;5131759;27;20463;-63
2022/05/12 10:41:24;;;;;;;2.70;1.67;;;10.40;99.90;;;;;;5137643;27;20472;-63
2022/05/12 10:44:27;;;;;;;2.00;1.60;;;10.40;99.90;;;;;;5143398;27;20799;-63
2022/05/12 10:47:02;;;;;;;1.60;1.50;;;10.40;99.90;;;;;;5139001;27;20460;-64
2022/05/12 10:49:40;;;;;;;2.00;1.37;;;10.40;99.90;;;;;;5136281;27;20602;-63
2022/05/12 10:52:21;;;;;;;1.50;1.40;;;10.40;99.90;;;;;;5150502;27;20467;-63
2022/05/12 10:55:08;;;;;;;2.10;1.57;;;10.40;99.90;;;;;;5130904;27;20473;-63
2022/05/12 10:57:50;;;;;;;2.50;1.93;;;10.30;99.90;;;;;;5133858;27;21067;-63
2022/05/12 11:00:42;;;;;;;1.67;1.40;;;10.30;99.90;;;;;;5134142;27;20468;-63
2022/05/12 11:03:20;;;;;;;1.60;1.10;;;10.30;99.90;;;;;;5117731;27;20480;-63
2022/05/12 11:05:55;;;;;;;1.93;1.50;;;10.30;99.90;;;;;;5111267;27;20475;-63
2022/05/12 11:08:31;;;;;;;2.00;1.30;;;10.20;99.90;;;;;;5123610;28;20879;-63
2022/05/12 11:11:09;;;;;;;2.87;1.50;;;10.20;99.90;;;;;;5132987;27;20514;-63
2022/05/12 11:13:45;;;;;;;1.93;1.40;;;10.20;99.90;;;;;;5125451;27;20473;-63
2022/05/12 11:16:19;;;;;;;2.85;1.85;;;10.20;99.90;;;;;;5124747;28;20457;-64
2022/05/12 11:18:53;;;;;;;4.25;1.35;;;10.20;99.90;;;;;;5124400;28;20203;-64
2022/05/12 11:21:25;;;;;;;1.13;0.90;;;10.20;99.90;;;;;;5110775;27;20209;-63
2022/05/12 11:24:23;;;;;;;7.30;1.60;;;10.20;99.90;;;;;;5119207;27;20473;-64
2022/05/12 11:27:37;;;;;;;1.20;1.10;;;10.30;99.90;;;;;;5123886;28;20553;-63
2022/05/12 11:30:36;;;;;;;2.20;1.30;;;10.30;99.90;;;;;;5124585;27;20481;-63
2022/05/12 11:33:24;;;;;;;1.40;1.27;;;10.30;99.90;;;;;;5079954;28;20543;-63
2022/05/12 11:35:56;;;;;;;2.00;1.37;;;10.30;99.90;;;;;;5080935;28;20980;-63
2022/05/12 11:38:47;;;;;;;1.93;1.50;;;10.30;99.90;;;;;;5064786;28;20456;-64
2022/05/12 11:41:40;;;;;;;2.33;1.60;;;10.30;99.90;;;;;;5070121;28;20466;-64
2022/05/12 11:44:33;;;;;;;1.20;1.10;;;10.30;99.90;;;;;;5067640;28;20531;-65
2022/05/12 11:47:48;;;;;;;0.97;0.97;;;10.30;99.90;;;;;;5065755;28;20571;-65
2022/05/12 11:50:53;;;;;;;1.48;1.38;;;10.30;99.90;;;;;;5011361;28;20494;-64
2022/05/12 11:53:27;;;;;;;3.87;1.23;;;10.30;99.90;;;;;;5011511;28;20210;-65
2022/05/12 11:56:06;;;;;;;2.33;1.23;;;10.20;99.90;;;;;;5004340;28;20463;-65
2022/05/12 11:58:42;;;;;;;1.53;1.43;;;10.20;99.90;;;;;;5012612;28;20873;-65
2022/05/12 12:01:35;;;;;;;1.20;1.10;;;10.30;99.90;;;;;;5005519;28;20469;-64
2022/05/12 12:04:14;;;;;;;1.50;1.30;;;10.30;99.90;;;;;;5008436;28;20458;-65
2022/05/12 12:06:51;;;;;;;0.63;0.63;;;10.20;99.90;;;;;;5010893;28;20529;-65
2022/05/12 12:09:51;;;;;;;1.90;0.80;;;10.20;99.90;;;;;;5052589;28;20530;-65
2022/05/12 12:12:54;;;;;;;1.30;1.20;;;10.20;99.90;;;;;;5082708;28;20462;-64
2022/05/12 12:16:05;;;;;;;1.80;1.20;;;10.20;99.90;;;;;;5077592;28;20497;-65
2022/05/12 12:19:03;;;;;;;2.10;1.07;;;10.20;99.90;;;;;;5065880;28;20902;-65
2022/05/12 12:22:03;;;;;;;1.73;1.43;;;10.10;99.90;;;;;;5081238;28;20455;-65
2022/05/12 12:24:43;;;;;;;0.93;0.93;;;10.10;99.90;;;;;;5078728;28;20505;-65
2022/05/12 12:27:31;;;;;;;1.57;1.13;;;10.10;99.90;;;;;;5120628;27;20463;-65
2022/05/12 12:30:23;;;;;;;2.13;1.03;;;10.10;99.90;;;;;;5114131;28;20490;-65
2022/05/12 12:33:13;;;;;;;1.53;0.93;;;10.10;99.90;;;;;;5120430;28;20458;-65
2022/05/12 12:36:01;;;;;;;2.23;1.10;;;10.20;99.90;;;;;;5136252;27;20468;-65
2022/05/12 12:39:10;;;;;;;3.33;1.70;;;10.10;99.90;;;;;;5122232;28;21077;-64
2022/05/12 12:41:47;;;;;;;1.90;1.00;;;10.00;99.90;;;;;;5115305;28;20543;-65
2022/05/12 12:44:24;;;;;;;2.15;1.00;;;10.00;99.90;;;;;;5108052;27;20472;-64
2022/05/12 12:47:15;;;;;;;0.87;0.87;;;10.00;99.90;;;;;;5112969;27;20538;-64
2022/05/12 12:49:50;;;;;;;3.10;1.13;;;9.90;99.90;;;;;;5114481;28;20553;-65
2022/05/12 12:52:23;;;;;;;1.02;0.82;;;9.90;99.90;;;;;;5118336;28;20461;-65
2022/05/12 12:57:48;;;;;;;1.25;1.15;;;9.90;99.90;;;;;;5114297;28;20465;-65
2022/05/12 13:00:28;;;;;;;2.30;1.33;;;9.90;99.90;;;;;;5134864;27;20207;-65
2022/05/12 13:03:02;;;;;;;1.27;1.17;;;9.90;99.90;;;;;;5113973;28;20461;-64
2022/05/12 13:05:36;;;;;;;1.10;1.10;;;9.90;99.90;;;;;;5121964;27;20517;-65
2022/05/12 13:08:22;;;;;;;1.30;1.10;;;9.90;99.90;;;;;;5119698;28;20202;-63
2022/05/12 13:10:59;;;;;;;2.43;1.13;;;9.90;99.90;;;;;;5122918;27;20476;-64
2022/05/12 13:13:30;;;;;;;1.70;1.13;;;10.00;99.90;;;;;;5121536;27;20472;-63
2022/05/12 13:16:03;;;;;;;1.30;1.07;;;10.00;99.90;;;;;;5132507;27;20465;-63
2022/05/12 13:18:35;;;;;;;2.47;1.03;;;10.00;99.90;;;;;;5125561;27;20473;-63
2022/05/12 13:21:07;;;;;;;1.97;0.90;;;10.00;99.90;;;;;;5111045;28;20501;-63
2022/05/12 13:23:41;;;;;;;1.63;1.20;;;10.00;99.90;;;;;;5118667;28;20469;-65
2022/05/12 13:26:12;;;;;;;1.43;1.00;;;10.10;99.90;;;;;;5121257;27;20460;-66
2022/05/12 13:28:44;;;;;;;1.40;0.70;;;10.10;99.90;;;;;;5124063;27;20465;-64
2022/05/12 13:31:23;;;;;;;1.27;0.90;;;10.10;99.90;;;;;;5121445;27;20509;-64
2022/05/12 13:34:04;;;;;;;1.37;1.03;;;10.10;99.90;;;;;;5124743;27;20464;-64
2022/05/12 13:36:44;;;;;;;1.23;1.10;;;10.20;99.90;;;;;;5137070;27;20466;-64
2022/05/12 13:39:48;;;;;;;1.57;0.70;;;10.20;99.90;;;;;;5117708;27;20521;-64
2022/05/12 13:42:24;;;;;;;0.77;0.77;;;10.20;99.90;;;;;;5102971;28;20462;-64
2022/05/12 13:44:57;;;;;;;2.40;1.73;;;10.30;99.90;;;;;;5108881;28;20450;-64
2022/05/12 13:47:34;;;;;;;2.50;1.00;;;10.20;99.90;;;;;;5123475;28;20894;-64
2022/05/12 13:50:09;;;;;;;0.90;0.70;;;10.20;99.90;;;;;;5122532;28;20473;-64
2022/05/12 13:52:44;;;;;;;1.10;0.70;;;10.20;99.90;;;;;;5122841;28;20502;-64
2022/05/12 13:55:26;;;;;;;1.20;1.10;;;10.30;99.90;;;;;;5120087;28;22318;-64